Data van 10-08-2022 06:43 is mede mogelijk gemaakt door Luchtvaartmeteo.nl en Jumprun.nl

Netherlands
ZCZC
FT092300 EHAM AMSTERDAM/SCHIPHOL NLD -3 m.
TAF EHAM 092252Z 1000/1106 05010KT CAVOK=

ZCZC
FT092300 EHBK MAASTRICHT/MAASTRICHT-AACHEN NLD 114 m.
TAF EHBK 092258Z 1000/1106 05006KT CAVOK=

ZCZC
FT092300 EHGG GRONINGEN/EELDE NLD 5 m.
TAF EHGG 092258Z 1000/1106 05006KT CAVOK
TEMPO 1000/1006 6000 MIFG
PROB40 TEMPO 1002/1006 0800 BCFG
PROB40 TEMPO 1102/1106 6000 MIFG=

ZCZC
FT092300 EHLE LELYSTAD/LELYSTAD NLD -3 m.
TAF EHLE 092252Z 1000/1106 04009KT CAVOK=

ZCZC
FT092300 EHRD ROTTERDAM/THE HAGUE AIRPORT NLD -5 m.
TAF EHRD 092252Z 1000/1106 05009KT CAVOK=


Military
ZCZC
FT092300 EHEH EINDHOVEN/EINDHOVEN NLD 22 m.
TAF EHEH 092306Z 1000/1106 04006KT CAVOK
TEMPO 1010/1018 07008G18KT=

ZCZC
FC100100 EHDL ARNHEM/DEELEN NLD 48 m.
TAF EHDL 100100Z NIL=

ZCZC
FC100100 EHGR GILZE-RIJEN/GILZE-RIJEN NLD 14 m.
TAF EHGR 100100Z NIL=

ZCZC
FC100100 EHKD DE KOOY/DE KOOY NLD 1 m.
TAF EHKD 100006Z 1001/1013 06010KT CAVOK=

ZCZC
FC100100 EHLW LEEUWARDEN/LEEUWARDEN NLD 1 m.
TAF EHLW 100005Z 1001/1013 VRB02KT CAVOK
TEMPO 1000/1005 4500 MIFG BR
PROB40 TEMPO 1002/1005 0600 BCFG
BECMG 1006/1009 05007KT=

ZCZC
FC100100 EHVK VOLKEL/VOLKEL NLD 21 m.
TAF EHVK 100006Z 1001/1013 04005KT CAVOK
BECMG 1010/1012 07008G18KT=

ZCZC
FC100100 EHWO WOENSDRECHT/WOENSDRECHT NLD 19 m.
TAF EHWO 100100Z NIL=